Peshastin, WA (98847)

10:08 AM PDT on October 02, 2014 (GMT -0700)
Mountain Home Lodge Leavenworth, WA | Change Station
CLOSE
Current Station
Personal Weather Station
Location: Leavenworth, WA
Elevation: 2044 ft
Nearby Weather Stations

Elev 2044 ft 47.57 °N, 120.65 °W | Updated 2 minutes ago

Clear
Clear
49.1 °F
Feels Like 49 °F
N
1.0
Wind Variable Wind from ENE
Gusts 6.0 mph

Today
High -- | Low -- °F
--% Chance of Precip.
Yesterday
High -- | Low -- °F
Precip. -- in
7:02 AM 6:39 PM
First Quarter, 60% visible
Pressure 30.28 in
Visibility 10.0 miles
Clouds Clear
Windchill 49 °F
Dew Point 39 °F
Humidity 67%
Rainfall 0.00 in
Snow Depth 0 in , 0 in , 0 in
UV 2 out of 12
Pollen 1.80 out of 12
Air Quality Not available.
Flu Activity Not available.
METAR KEAT 021655Z AUTO 21005KT 10SM CLR 14/03 A3028 RMK AO2 SLP253 T01440028

More Conditions Fewer Conditions

Pressure 30.28 in
Visibility 10.0 miles
Clouds Clear
Windchill 49 °F
Dew Point 39 °F
Humidity 67%
Rainfall 0.00 in
Snow Depth 0 in , 0 in , 0 in
UV 2 out of 12
Pollen 1.80 out of 12
Air Quality Not available.
Flu Activity Not available.
METAR KEAT 021655Z AUTO 21005KT 10SM CLR 14/03 A3028 RMK AO2 SLP253 T01440028

More Conditions Fewer Conditions

10-Day Weather Forecast

Almanac

Astronomy

Oct. 02, 2014 Rise Set
Actual Time 7:02 AM PDT 6:39 PM PDT
Civil Twilight 6:32 AM PDT 7:10 PM PDT
Nautical Twilight 5:56 AM PDT 7:45 PM PDT
Astronomical Twilight 5:20 AM PDT 8:21 PM PDT
Moon 3:11 PM PDT 12:02 AM PDT
Length of Visible Light 12h 37m
Length of Day
11h 36m
Tomorrow will be 3m 24s shorter.
First Quarter, 60% of the Moon is Illuminated
Today
First Quarter
Oct 8
Full
Oct 15
Last Quarter
Oct 23
New
Oct 30
First Quarter

Today's Extremes

State Highs State Lows

Community

WunderPhotos

Upload Photos

1,758,298 photos uploaded!

Nearby

Snow Depth

Station Depth Elevation
Mf Nooksack 0 in 4980 ft
Bunchgrass Meadow 0 in 5000 ft
Alpine Meadows 0 in 3500 ft
Stevens Pass 0 in 4070 ft
Pope Ridge 0 in 3540 ft

Earthquake Activity

City Distance Mag. Time & Date
No recent earthquake activity has been reported nearby.
Minimum magnitude displayed is 2.5.

Coastal Water Temperatures

Place Temperature
No Stations Reporting

Nearby Weather Stations